Time;durP1;ratioP1;P1;durP2;ratioP2;P2;SDS_P1;SDS_P2;PMS_P1;PMS_P2;Temp;Humidity;BMP_temperature;BMP_pressure;BME280_temperature;BME280_humidity;BME280_pressure;Samples;Min_cycle;Max_cycle;Signal;HPM_P1;HPM_P2
2021/06/28 00:00:28;;;;;;;5.92;3.88;;;;;;;21.21;71.29;98853.13;320194;110;2175020;-69
2021/06/28 00:01:51;;;;;;;7.02;3.98;;;;;;;21.20;71.39;98854.25;357655;110;1962989;-70
2021/06/28 00:03:04;;;;;;;7.44;4.23;;;;;;;21.28;71.55;98861.82;378091;106;2851989;-69
2021/06/28 00:04:09;;;;;;;7.87;4.09;;;;;;;21.17;71.58;98857.59;297581;109;2606897;-71
2021/06/28 00:05:22;;;;;;;6.82;4.21;;;;;;;21.35;71.27;98853.20;389456;103;2072976;-70
2021/06/28 00:06:28;;;;;;;6.56;4.21;;;;;;;21.21;71.32;98860.55;377305;107;1962945;-70
2021/06/28 00:07:33;;;;;;;7.22;4.11;;;;;;;21.22;71.28;98863.02;375373;107;1961949;-70
2021/06/28 00:08:47;;;;;;;7.01;3.96;;;;;;;21.27;71.51;98868.41;386139;106;1985982;-70
2021/06/28 00:09:53;;;;;;;6.17;3.82;;;;;;;21.16;71.54;98864.17;348612;108;2006999;-69
2021/06/28 00:11:26;;;;;;;8.43;4.54;;;;;;;21.32;71.31;98859.29;413361;99;1987006;-69
2021/06/28 00:12:31;;;;;;;8.97;4.27;;;;;;;21.12;71.67;98874.13;392501;101;1961921;-68
2021/06/28 00:13:39;;;;;;;7.56;4.37;;;;;;;21.17;71.47;98856.75;391743;101;1961983;-69
2021/06/28 00:14:51;;;;;;;7.07;4.28;;;;;;;21.23;71.44;98856.40;396458;103;1986904;-71
2021/06/28 00:15:57;;;;;;;7.66;3.98;;;;;;;21.22;71.27;98864.92;369058;105;1962034;-70
2021/06/28 00:17:09;;;;;;;8.35;4.08;;;;;;;21.34;71.27;98857.07;385144;106;1965884;-70
2021/06/28 00:18:16;;;;;;;8.65;4.69;;;;;;;21.24;71.25;98863.52;368239;109;1961984;-70
2021/06/28 00:19:28;;;;;;;7.16;3.97;;;;;;;21.32;71.28;98870.28;350769;104;2261030;-70
2021/06/28 00:20:35;;;;;;;5.86;3.47;;;;;;;21.21;71.33;98871.54;364507;109;1961997;-69
2021/06/28 00:21:47;;;;;;;6.12;3.99;;;;;;;21.29;71.44;98890.11;393157;104;1972071;-69
2021/06/28 00:22:52;;;;;;;8.66;4.52;;;;;;;21.22;71.18;98876.75;373327;106;1962003;-67
2021/06/28 00:24:06;;;;;;;6.82;4.06;;;;;;;21.38;70.96;98871.05;387534;104;1986045;-70
2021/06/28 00:25:15;;;;;;;9.23;4.46;;;;;;;21.26;70.95;98885.20;370198;108;1963013;-69
2021/06/28 00:26:40;;;;;;;7.44;3.98;;;;;;;21.20;71.14;98878.97;368759;107;1962001;-70
2021/06/28 00:27:52;;;;;;;7.98;4.54;;;;;;;21.26;71.42;98882.46;346535;104;2855023;-70
2021/06/28 00:29:00;;;;;;;7.27;4.16;;;;;;;21.18;71.25;98889.42;369710;107;1961984;-70
2021/06/28 00:30:11;;;;;;;7.46;4.15;;;;;;;21.23;71.01;98880.31;369360;107;1962079;-70
2021/06/28 00:31:24;;;;;;;6.31;3.90;;;;;;;21.37;70.70;98870.20;385099;103;2956967;-71
2021/06/28 00:32:30;;;;;;;8.44;3.88;;;;;;;21.18;70.90;98881.19;330530;107;2823986;-70
2021/06/28 00:33:36;;;;;;;8.72;4.19;;;;;;;21.21;70.80;98879.78;344398;105;2071941;-70
2021/06/28 00:34:48;;;;;;;7.10;3.87;;;;;;;21.30;70.82;98876.09;392736;104;1985129;-70
2021/06/28 00:35:54;;;;;;;5.84;3.78;;;;;;;21.15;70.88;98873.55;374199;107;1961798;-71
2021/06/28 00:36:59;;;;;;;6.89;4.37;;;;;;;21.17;70.85;98875.97;373793;107;1962010;-70
2021/06/28 00:38:13;;;;;;;7.71;4.01;;;;;;;21.30;70.69;98873.34;395728;104;1988064;-70
2021/06/28 00:39:19;;;;;;;8.85;4.32;;;;;;;21.19;70.67;98879.25;352877;107;2014894;-70
2021/06/28 00:40:32;;;;;;;5.92;3.44;;;;;;;21.26;70.90;98865.98;396504;104;1986013;-71
2021/06/28 00:41:38;;;;;;;6.54;4.08;;;;;;;21.13;70.94;98877.70;374645;106;1963958;-69
2021/06/28 00:43:01;;;;;;;8.63;3.98;;;;;;;21.08;71.26;98873.89;358829;105;1962005;-70
2021/06/28 00:44:06;;;;;;;7.72;4.19;;;;;;;21.13;70.91;98881.25;351648;107;2006080;-70
2021/06/28 00:45:22;;;;;;;8.44;3.79;;;;;;;21.21;71.00;98871.54;401047;101;1985960;-68
2021/06/28 00:46:28;;;;;;;5.88;3.74;;;;;;;21.12;70.82;98856.81;376145;105;1962015;-69
2021/06/28 00:47:40;;;;;;;6.86;3.85;;;;;;;21.17;70.95;98873.23;390797;103;2072047;-69
2021/06/28 00:48:45;;;;;;;6.81;4.22;;;;;;;21.07;70.85;98874.20;372657;107;1961018;-70
2021/06/28 00:50:10;;;;;;;8.49;4.21;;;;;;;21.06;70.95;98867.05;331080;107;2881005;-71
2021/06/28 00:51:16;;;;;;;6.51;4.27;;;;;;;21.02;71.09;98869.58;369667;107;1961804;-70
2021/06/28 00:52:28;;;;;;;6.51;4.13;;;;;;;21.20;70.78;98869.92;392637;103;1965003;-70
2021/06/28 00:53:34;;;;;;;8.07;4.11;;;;;;;21.06;70.96;98875.30;372452;105;1969955;-69
2021/06/28 00:54:46;;;;;;;8.09;4.19;;;;;;;21.21;70.57;98869.60;381294;104;2974864;-70
2021/06/28 00:55:53;;;;;;;7.22;3.64;;;;;;;21.08;70.63;98881.31;375159;105;1961973;-69
2021/06/28 00:57:16;;;;;;;6.82;3.74;;;;;;;21.03;70.79;98889.62;374108;107;1963070;-69
2021/06/28 00:58:29;;;;;;;7.36;4.11;;;;;;;21.10;70.78;98881.84;339097;104;2611016;-69
2021/06/28 00:59:43;;;;;;;7.14;4.32;;;;;;;21.00;71.05;98876.48;391895;104;2073025;-69
2021/06/28 01:01:07;;;;;;;7.21;3.33;;;;;;;20.88;71.05;98882.41;375728;106;1960768;-70
2021/06/28 01:02:19;;;;;;;7.08;4.37;;;;;;;21.02;70.92;98874.27;391824;104;2072652;-68
2021/06/28 01:03:24;;;;;;;6.19;4.05;;;;;;;20.82;71.21;98878.06;376493;105;1961972;-69
2021/06/28 01:04:48;;;;;;;6.13;3.82;;;;;;;20.70;71.75;98872.19;324976;107;2249933;-69
2021/06/28 01:06:01;;;;;;;6.74;4.03;;;;;;;20.82;71.67;98878.88;392970;104;1966017;-69
2021/06/28 01:07:06;;;;;;;6.87;3.86;;;;;;;20.75;71.29;98881.17;376163;106;1963065;-69
2021/06/28 01:08:18;;;;;;;5.94;3.47;;;;;;;20.83;71.46;98879.72;391794;103;1987047;-70
2021/06/28 01:09:24;;;;;;;6.52;3.51;;;;;;;20.68;71.53;98875.20;370092;107;1961910;-70
2021/06/28 01:10:37;;;;;;;9.76;3.76;;;;;;;20.78;71.46;98877.84;393761;104;1962073;-70
2021/06/28 01:11:44;;;;;;;6.07;3.59;;;;;;;20.71;71.31;98879.30;374500;107;1969989;-69
2021/06/28 01:12:50;;;;;;;8.01;3.87;;;;;;;20.72;71.18;98880.92;374795;107;1964031;-69
2021/06/28 01:14:03;;;;;;;7.38;4.09;;;;;;;20.83;71.23;98896.19;349498;106;2181006;-70
2021/06/28 01:15:10;;;;;;;6.59;3.68;;;;;;;20.71;71.14;98890.28;366918;109;1962088;-70
2021/06/28 01:16:23;;;;;;;7.96;4.01;;;;;;;20.83;71.14;98910.72;404173;101;1985863;-70
2021/06/28 01:17:28;;;;;;;5.79;3.59;;;;;;;20.68;71.22;98894.42;382550;103;1964002;-69
2021/06/28 01:18:52;;;;;;;7.27;4.03;;;;;;;20.69;71.05;98893.30;378672;105;1962038;-70
2021/06/28 01:20:17;;;;;;;6.42;4.18;;;;;;;20.76;71.19;98909.43;403213;101;1961874;-68
2021/06/28 01:21:23;;;;;;;7.52;4.07;;;;;;;20.61;71.41;98902.17;381605;103;1969998;-70
2021/06/28 01:22:37;;;;;;;8.01;4.58;;;;;;;20.75;71.15;98902.32;388943;104;2081946;-69
2021/06/28 01:23:43;;;;;;;6.09;3.77;;;;;;;20.57;71.37;98904.69;320301;106;2323998;-70
2021/06/28 01:25:11;;;;;;;6.51;4.00;;;;;;;20.53;71.53;98902.77;375558;106;1965101;-70
2021/06/28 01:26:24;;;;;;;5.94;3.94;;;;;;;20.64;71.47;98905.17;347829;103;2844011;-70
2021/06/28 01:27:32;;;;;;;6.85;3.63;;;;;;;20.56;71.39;98900.32;327361;106;2250923;-70
2021/06/28 01:28:44;;;;;;;6.37;3.43;;;;;;;20.68;71.33;98912.81;384082;104;2966989;-70
2021/06/28 01:30:20;;;;;;;6.32;3.67;;;;;;;20.63;71.35;98899.96;380360;99;2149031;-69
2021/06/28 01:31:25;;;;;;;6.59;3.63;;;;;;;20.55;71.14;98897.86;391274;102;1962044;-68
2021/06/28 01:32:38;;;;;;;7.86;4.08;;;;;;;20.58;71.41;98906.31;377371;106;2071999;-68
2021/06/28 01:33:44;;;;;;;7.30;4.05;;;;;;;20.52;71.22;98892.92;366164;109;1964598;-71
2021/06/28 01:34:56;;;;;;;6.46;3.74;;;;;;;20.59;71.43;98896.99;392046;104;1986198;-70
2021/06/28 01:36:01;;;;;;;8.65;4.48;;;;;;;20.46;71.44;98900.39;374377;107;1962054;-71
2021/06/28 01:37:22;;;;;;;6.65;3.74;;;;;;;20.43;71.58;98901.79;374173;107;1960936;-70
2021/06/28 01:38:34;;;;;;;7.05;4.00;;;;;;;20.43;71.99;98903.72;382363;104;2894928;-68
2021/06/28 01:39:40;;;;;;;6.22;3.94;;;;;;;20.29;72.04;98903.55;370204;107;1961989;-71
2021/06/28 01:40:53;;;;;;;9.16;4.40;;;;;;;20.46;71.78;98900.39;390451;104;2071997;-69
2021/06/28 01:41:59;;;;;;;7.73;4.34;;;;;;;20.37;71.62;98908.41;380026;105;1964007;-70
2021/06/28 01:43:24;;;;;;;8.06;4.37;;;;;;;20.30;71.87;98905.20;315319;105;2395115;-71
2021/06/28 01:44:35;;;;;;;7.01;4.05;;;;;;;20.39;71.84;98911.69;396959;104;1973004;-69
2021/06/28 01:45:41;;;;;;;6.37;3.84;;;;;;;20.27;71.90;98913.17;375941;107;1961947;-69
2021/06/28 01:46:54;;;;;;;9.01;4.25;;;;;;;20.36;72.04;98897.74;398979;101;2073767;-69
2021/06/28 01:48:00;;;;;;;7.09;3.36;;;;;;;20.26;71.84;98898.65;322830;105;2609986;-70
2021/06/28 01:49:24;;;;;;;9.89;4.24;;;;;;;20.20;71.98;98895.14;374684;107;1962045;-70
2021/06/28 01:50:38;;;;;;;7.49;4.24;;;;;;;20.28;72.26;98895.63;349732;104;2646965;-70
2021/06/28 01:51:43;;;;;;;6.68;4.04;;;;;;;20.19;72.12;98899.00;375050;106;1962924;-70
2021/06/28 01:52:49;;;;;;;7.44;3.55;;;;;;;20.18;72.09;98891.05;374884;106;1962060;-70
2021/06/28 01:53:54;;;;;;;6.81;4.15;;;;;;;20.07;72.54;98901.29;373750;106;1961908;-70
2021/06/28 01:55:09;;;;;;;8.42;4.02;;;;;;;20.21;72.29;98899.50;397990;104;1986028;-70
2021/06/28 01:56:15;;;;;;;7.27;4.20;;;;;;;20.06;72.40;98894.18;376473;105;1961921;-70
2021/06/28 01:57:35;;;;;;;8.96;4.17;;;;;;;20.20;72.27;98891.58;387146;106;1985861;-69
2021/06/28 01:58:47;;;;;;;6.46;3.91;;;;;;;20.13;72.62;98902.06;388802;106;1986005;-70
2021/06/28 02:00:15;;;;;;;7.31;4.27;;;;;;;20.01;72.52;98907.92;306820;108;2577081;-70
2021/06/28 02:01:28;;;;;;;8.71;4.11;;;;;;;20.08;72.73;98900.17;370975;101;2093083;-70
2021/06/28 02:02:33;;;;;;;6.19;3.63;;;;;;;19.93;72.60;98887.42;380719;105;1962949;-70
2021/06/28 02:03:38;;;;;;;6.39;4.02;;;;;;;20.04;72.34;98914.77;369128;105;1961863;-70
2021/06/28 02:04:50;;;;;;;7.30;4.41;;;;;;;20.12;72.51;98897.69;384445;106;1985781;-70
2021/06/28 02:05:58;;;;;;;8.76;4.59;;;;;;;20.03;72.45;98924.07;364608;109;1962065;-70
2021/06/28 02:07:10;;;;;;;5.67;3.73;;;;;;;20.19;72.09;98901.73;403553;101;1986826;-71
2021/06/28 02:08:19;;;;;;;7.63;3.44;;;;;;;20.10;72.01;98903.45;378868;105;1962051;-70
2021/06/28 02:09:42;;;;;;;6.84;3.72;;;;;;;20.03;72.32;98900.23;378328;105;1962074;-70
2021/06/28 02:10:57;;;;;;;6.71;3.88;;;;;;;20.13;72.42;98926.73;392973;104;1986042;-70
2021/06/28 02:12:04;;;;;;;8.62;4.21;;;;;;;20.02;72.46;98908.73;360894;107;1961957;-69
2021/06/28 02:13:19;;;;;;;6.53;3.75;;;;;;;20.04;72.72;98917.50;392956;103;1986037;-70
2021/06/28 02:14:27;;;;;;;6.68;3.96;;;;;;;19.92;72.74;98915.92;370465;107;1961984;-68
2021/06/28 02:15:52;;;;;;;7.61;4.08;;;;;;;19.93;72.75;98908.54;366848;107;1962052;-70
2021/06/28 02:17:05;;;;;;;7.49;4.49;;;;;;;20.03;72.91;98913.11;328377;104;2510023;-70
2021/06/28 02:18:10;;;;;;;7.31;3.87;;;;;;;19.96;72.62;98906.03;355935;106;1962017;-71
2021/06/28 02:19:47;;;;;;;7.47;3.93;;;;;;;20.08;72.63;98904.84;413436;99;1987033;-69
2021/06/28 02:20:54;;;;;;;14.68;5.11;;;;;;;19.98;72.48;98912.06;390286;101;1962007;-69
2021/06/28 02:22:17;;;;;;;9.32;4.01;;;;;;;19.99;72.45;98905.46;385277;101;1962017;-69
2021/06/28 02:23:35;;;;;;;7.07;4.04;;;;;;;20.16;72.21;98915.19;391981;104;1985905;-70
2021/06/28 02:24:40;;;;;;;10.34;4.32;;;;;;;19.92;72.64;98918.66;370485;107;1964332;-70
2021/06/28 02:25:46;;;;;;;6.67;4.03;;;;;;;19.94;72.64;98924.69;371462;107;1962024;-70
2021/06/28 02:27:00;;;;;;;6.57;4.41;;;;;;;20.08;72.48;98921.30;396520;104;1985991;-70
2021/06/28 02:28:05;;;;;;;10.51;3.96;;;;;;;19.96;72.59;98921.67;341363;105;2152968;-69
2021/06/28 02:29:11;;;;;;;6.87;4.36;;;;;;;19.99;72.30;98916.42;324812;107;2276982;-70
2021/06/28 02:30:23;;;;;;;7.54;4.13;;;;;;;20.11;72.31;98912.48;391393;104;2081063;-69
2021/06/28 02:31:29;;;;;;;7.96;4.22;;;;;;;19.96;72.47;98917.00;375599;107;1962055;-69
2021/06/28 02:32:43;;;;;;;6.82;4.64;;;;;;;20.02;72.75;98914.22;399022;101;2072007;-68
2021/06/28 02:33:51;;;;;;;6.97;4.14;;;;;;;20.01;72.31;98920.82;340876;103;2222030;-68
2021/06/28 02:35:14;;;;;;;5.96;4.13;;;;;;;19.95;72.44;98931.83;371591;105;1961993;-69
2021/06/28 02:36:27;;;;;;;8.43;4.72;;;;;;;20.05;72.46;98927.35;390433;104;2071988;-69
2021/06/28 02:37:32;;;;;;;8.44;4.44;;;;;;;19.92;72.61;98917.84;374595;106;1962052;-69
2021/06/28 02:39:07;;;;;;;7.37;4.51;;;;;;;20.07;72.57;98919.67;411569;99;1987023;-71
2021/06/28 02:40:13;;;;;;;8.69;5.03;;;;;;;19.96;72.50;98916.19;386704;104;1962011;-69
2021/06/28 02:41:37;;;;;;;7.01;4.38;;;;;;;20.00;72.33;98911.75;381748;103;2962015;-69
2021/06/28 02:42:49;;;;;;;6.49;4.27;;;;;;;20.04;72.65;98921.05;391662;104;1963908;-70
2021/06/28 02:43:56;;;;;;;7.19;4.11;;;;;;;19.92;72.67;98915.92;369506;107;1969948;-70
2021/06/28 02:45:02;;;;;;;6.59;4.23;;;;;;;19.98;72.30;98930.44;369038;109;1963023;-70
2021/06/28 02:46:21;;;;;;;7.59;4.32;;;;;;;20.01;72.65;98918.08;378913;107;1987004;-71
2021/06/28 02:47:35;;;;;;;7.51;4.03;;;;;;;20.05;72.46;98924.61;407774;101;1971966;-71
2021/06/28 02:48:58;;;;;;;7.84;4.44;;;;;;;19.93;72.41;98920.32;385427;103;1962011;-69
2021/06/28 02:50:14;;;;;;;8.47;4.67;;;;;;;20.06;72.36;98921.59;338226;106;2848917;-71
2021/06/28 02:51:19;;;;;;;9.76;4.44;;;;;;;19.96;72.37;98925.22;368624;108;1965012;-69
2021/06/28 02:52:31;;;;;;;8.89;5.03;;;;;;;20.03;72.50;98919.43;398395;101;2074015;-70
2021/06/28 02:53:37;;;;;;;10.22;5.49;;;;;;;19.90;72.54;98931.02;382446;105;1970027;-69
2021/06/28 02:55:02;;;;;;;7.93;4.56;;;;;;;19.84;72.69;98932.98;380437;105;1964048;-71
2021/06/28 02:56:16;;;;;;;8.43;4.61;;;;;;;19.92;72.76;98948.00;340816;101;2403839;-70
2021/06/28 02:57:21;;;;;;;8.33;4.46;;;;;;;19.85;72.62;98923.67;385148;103;1962800;-70
2021/06/28 02:58:27;;;;;;;9.31;4.96;;;;;;;19.89;72.44;98924.72;382575;103;1961998;-70
2021/06/28 02:59:32;;;;;;;8.14;4.20;;;;;;;19.82;72.78;98924.25;384731;103;1961955;-70
2021/06/28 03:00:45;;;;;;;8.31;4.41;;;;;;;20.02;72.44;98923.26;384985;106;1985985;-70
2021/06/28 03:01:50;;;;;;;6.81;4.78;;;;;;;19.96;72.25;98919.74;368657;107;1960972;-70
2021/06/28 03:03:04;;;;;;;7.37;4.64;;;;;;;19.92;72.48;98906.89;354335;104;2865050;-70
2021/06/28 03:04:09;;;;;;;6.49;4.40;;;;;;;19.90;72.36;98920.05;371040;107;1961977;-70
2021/06/28 03:05:33;;;;;;;7.77;4.39;;;;;;;19.92;72.28;98923.33;369628;107;1962997;-70
2021/06/28 03:07:27;;;;;;;8.04;4.49;;;;;;;19.95;72.50;98926.34;388630;106;2047019;-68
2021/06/28 03:09:24;;;;;;;9.62;4.93;;;;;;;19.91;72.06;98925.26;359573;110;1962014;-69
2021/06/28 03:11:11;;;;;;;8.77;4.52;;;;;;;19.99;72.26;98921.09;386599;104;2037018;-71
2021/06/28 03:12:44;;;;;;;7.96;4.78;;;;;;;19.94;71.89;98929.36;370418;108;1962018;-70
2021/06/28 03:14:16;;;;;;;8.09;4.66;;;;;;;20.04;71.98;98931.21;409643;100;1985987;-70
2021/06/28 03:15:22;;;;;;;8.77;4.52;;;;;;;19.99;71.62;98921.09;384795;103;1962043;-70
2021/06/28 03:16:46;;;;;;;8.65;4.78;;;;;;;19.98;71.61;98930.44;386999;104;1962066;-71
2021/06/28 03:17:58;;;;;;;6.96;4.09;;;;;;;20.05;71.71;98941.87;394591;104;1986162;-71
2021/06/28 03:19:03;;;;;;;8.48;4.66;;;;;;;19.89;71.90;98948.58;369792;107;1963025;-70
2021/06/28 03:20:17;;;;;;;8.21;4.69;;;;;;;20.02;71.95;98933.41;394225;104;1988873;-71
2021/06/28 03:21:22;;;;;;;9.53;4.61;;;;;;;19.96;71.69;98933.45;375184;107;1962092;-70
2021/06/28 03:22:46;;;;;;;7.34;4.11;;;;;;;19.97;71.61;98940.55;375141;105;1960711;-70
2021/06/28 03:23:58;;;;;;;9.44;4.49;;;;;;;20.07;71.61;98934.19;391242;104;1964896;-70
2021/06/28 03:25:06;;;;;;;7.50;4.58;;;;;;;19.99;71.59;98940.28;339249;107;2071107;-69
2021/06/28 03:26:19;;;;;;;9.62;4.83;;;;;;;20.01;71.75;98951.79;329739;103;2450047;-69
2021/06/28 03:27:31;;;;;;;7.45;4.63;;;;;;;20.07;71.53;98960.79;389461;104;2071885;-67
2021/06/28 03:28:55;;;;;;;8.46;4.50;;;;;;;19.93;71.38;98947.73;325661;107;2848985;-70
2021/06/28 03:30:10;;;;;;;10.27;4.82;;;;;;;19.90;71.81;98931.86;385066;106;1961946;-69
2021/06/28 03:31:16;;;;;;;7.27;4.44;;;;;;;19.85;71.70;98944.78;343156;108;2862002;-70
2021/06/28 03:32:40;;;;;;;7.67;4.28;;;;;;;19.83;71.76;98936.83;368193;108;1962050;-70
2021/06/28 03:33:45;;;;;;;9.04;5.06;;;;;;;19.88;71.63;98933.25;367404;108;1963997;-70
2021/06/28 03:34:57;;;;;;;9.09;4.65;;;;;;;20.00;71.59;98941.91;393653;104;1985998;-70
2021/06/28 03:36:04;;;;;;;7.52;4.43;;;;;;;19.88;71.61;98950.50;376836;107;1962036;-71
2021/06/28 03:37:17;;;;;;;7.05;4.61;;;;;;;20.02;71.49;98952.60;394903;104;1986954;-68
2021/06/28 03:38:22;;;;;;;8.36;4.66;;;;;;;19.85;71.67;98961.23;375173;107;1961891;-70
2021/06/28 03:39:45;;;;;;;7.46;4.93;;;;;;;19.87;71.58;98957.10;352223;109;2853052;-69
2021/06/28 03:40:50;;;;;;;7.11;4.82;;;;;;;19.89;71.41;98952.13;359361;108;2955843;-71
2021/06/28 03:42:04;;;;;;;8.74;5.08;;;;;;;20.04;71.27;98945.73;389538;104;2072030;-70
2021/06/28 03:43:10;;;;;;;8.08;4.38;;;;;;;19.96;71.07;98944.41;375754;106;1962063;-69
2021/06/28 03:44:16;;;;;;;8.87;4.86;;;;;;;19.97;70.99;98937.81;367663;108;1962025;-70
2021/06/28 03:45:28;;;;;;;7.91;5.13;;;;;;;19.95;71.39;98941.95;376289;104;2850010;-71
2021/06/28 03:46:35;;;;;;;7.03;4.34;;;;;;;19.89;71.24;98956.80;371363;106;1961918;-69
2021/06/28 03:47:47;;;;;;;7.76;4.36;;;;;;;19.94;71.56;98940.31;402612;101;1986065;-69
2021/06/28 03:48:52;;;;;;;9.02;4.47;;;;;;;19.94;71.01;98946.61;378875;106;1961955;-69
2021/06/28 03:50:16;;;;;;;9.00;4.39;;;;;;;19.91;71.20;98946.38;335816;106;2783018;-70
2021/06/28 03:51:28;;;;;;;9.44;4.17;;;;;;;20.03;71.03;98935.03;393983;104;1962085;-68
2021/06/28 03:52:33;;;;;;;7.27;4.60;;;;;;;19.94;71.08;98945.80;373705;107;1969972;-71
2021/06/28 03:53:39;;;;;;;8.36;4.64;;;;;;;19.90;71.38;98933.75;371710;107;1962061;-70
2021/06/28 03:54:44;;;;;;;7.37;4.78;;;;;;;19.95;71.27;98939.20;370476;108;1963046;-70
2021/06/28 03:55:56;;;;;;;6.46;4.16;;;;;;;20.11;70.95;98959.09;400012;101;1985926;-69
2021/06/28 03:57:01;;;;;;;7.09;4.75;;;;;;;20.06;70.63;98945.42;382513;103;1962014;-70
2021/06/28 03:58:14;;;;;;;6.86;4.37;;;;;;;20.09;70.82;98940.20;387529;106;1986966;-68
2021/06/28 03:59:26;;;;;;;8.89;4.78;;;;;;;20.10;70.73;98932.80;394238;104;1972937;-70
2021/06/28 04:00:32;;;;;;;9.23;5.51;;;;;;;19.95;70.81;98939.20;375407;105;1964009;-70
2021/06/28 04:01:44;;;;;;;8.34;4.74;;;;;;;20.11;70.73;98931.68;386843;106;1985978;-71
2021/06/28 04:02:52;;;;;;;9.54;4.20;;;;;;;20.05;70.56;98939.13;366806;107;1962030;-70
2021/06/28 04:04:19;;;;;;;8.92;4.74;;;;;;;20.12;70.35;98944.30;353177;109;1962142;-69
2021/06/28 04:05:32;;;;;;;8.01;4.26;;;;;;;20.26;70.23;98937.05;393113;104;1985921;-70
2021/06/28 04:06:53;;;;;;;8.43;4.59;;;;;;;20.18;70.13;98945.89;372611;106;1961951;-70
2021/06/28 04:08:42;;;;;;;7.87;4.18;;;;;;;20.40;69.46;98939.93;405036;101;2047006;-69
2021/06/28 04:10:39;;;;;;;8.87;4.55;;;;;;;20.36;69.19;98942.44;324560;104;2179989;-70
2021/06/28 04:12:25;;;;;;;7.34;5.22;;;;;;;20.46;69.12;98943.47;362105;105;2520974;-70
2021/06/28 04:13:51;;;;;;;12.07;5.94;;;;;;;20.25;69.38;98953.80;370949;107;1960705;-69
2021/06/28 04:15:09;;;;;;;9.29;5.59;;;;;;;20.28;69.64;98948.55;394363;104;1986005;-68
2021/06/28 04:16:16;;;;;;;10.68;5.27;;;;;;;20.12;69.80;98939.63;375424;105;1961886;-70
2021/06/28 04:17:46;;;;;;;8.30;4.82;;;;;;;20.11;69.66;98948.97;376992;106;1963832;-69
2021/06/28 04:18:53;;;;;;;9.29;5.73;;;;;;;20.00;70.18;98941.91;334709;107;2887843;-70
2021/06/28 04:20:08;;;;;;;13.21;6.39;;;;;;;20.04;70.62;98931.21;394390;104;1962042;-69
2021/06/28 04:21:20;;;;;;;9.63;6.15;;;;;;;20.03;70.61;98938.62;401282;101;1985973;-70
2021/06/28 04:22:25;;;;;;;11.37;6.06;;;;;;;19.88;70.82;98963.39;382265;104;1962079;-70
2021/06/28 04:23:38;;;;;;;9.88;5.29;;;;;;;19.96;71.05;98936.19;392956;104;1986062;-70
2021/06/28 04:24:44;;;;;;;7.62;4.75;;;;;;;19.82;71.19;98928.88;369825;107;1964002;-70
2021/06/28 04:25:56;;;;;;;7.92;4.23;;;;;;;20.05;70.92;98943.80;394749;104;1985890;-69
2021/06/28 04:27:01;;;;;;;9.16;4.90;;;;;;;20.05;70.62;98935.58;372193;105;1964035;-69
2021/06/28 04:28:25;;;;;;;8.51;4.09;;;;;;;20.12;70.49;98936.89;379150;105;1963030;-69
2021/06/28 04:29:37;;;;;;;10.76;5.40;;;;;;;20.42;69.80;98941.28;381770;104;2080969;-70
2021/06/28 04:30:44;;;;;;;13.43;4.77;;;;;;;20.38;69.38;98936.68;374688;106;1962035;-69
2021/06/28 04:31:51;;;;;;;7.07;5.11;;;;;;;20.49;68.85;98954.67;376874;106;1961982;-69
2021/06/28 04:32:57;;;;;;;8.51;4.96;;;;;;;20.49;68.62;98940.95;376409;107;1964953;-70
2021/06/28 04:34:09;;;;;;;8.26;5.59;;;;;;;20.56;68.61;98943.38;375307;108;2072039;-70
2021/06/28 04:35:18;;;;;;;10.48;5.66;;;;;;;20.47;68.69;98939.61;360010;111;1962020;-70
2021/06/28 04:36:30;;;;;;;13.24;5.79;;;;;;;20.50;68.98;98939.84;394546;106;1986000;-69
2021/06/28 04:37:36;;;;;;;8.78;5.91;;;;;;;20.36;68.99;98947.11;371092;107;1962975;-69
2021/06/28 04:38:42;;;;;;;9.17;5.54;;;;;;;20.40;68.91;98950.91;369127;107;1962980;-69
2021/06/28 04:39:55;;;;;;;9.99;6.91;;;;;;;20.50;68.93;98941.77;344072;104;2840017;-71
2021/06/28 04:41:00;;;;;;;9.66;6.21;;;;;;;20.35;69.21;98937.23;337250;106;2017011;-70
2021/06/28 04:42:12;;;;;;;8.28;5.74;;;;;;;20.50;69.20;98937.09;399163;103;1988014;-68
2021/06/28 04:43:17;;;;;;;10.54;6.55;;;;;;;20.40;69.03;98948.16;379464;105;1961957;-71
2021/06/28 04:44:41;;;;;;;8.96;6.26;;;;;;;20.36;69.21;98936.95;307973;105;2323923;-71
2021/06/28 04:45:53;;;;;;;9.69;6.70;;;;;;;20.48;69.33;98936.59;389705;103;2076000;-69
2021/06/28 04:46:58;;;;;;;11.83;6.77;;;;;;;20.41;69.29;98939.66;369295;107;1961962;-71
2021/06/28 04:48:11;;;;;;;9.77;6.53;;;;;;;20.51;69.46;98940.66;388752;106;1985938;-70
2021/06/28 04:49:17;;;;;;;10.78;7.01;;;;;;;20.40;69.27;98937.19;326583;109;2629979;-68
2021/06/28 04:50:42;;;;;;;10.12;6.98;;;;;;;20.42;69.18;98941.28;300347;110;2252946;-70
2021/06/28 04:51:54;;;;;;;13.03;6.62;;;;;;;20.49;69.44;98945.63;392124;104;2073087;-70
2021/06/28 04:53:00;;;;;;;9.74;6.13;;;;;;;20.40;69.14;98937.19;373634;107;1963847;-70
2021/06/28 04:54:05;;;;;;;10.09;6.31;;;;;;;20.34;69.35;98939.16;370912;107;1965028;-71
2021/06/28 04:55:17;;;;;;;10.50;6.33;;;;;;;20.42;69.73;98937.73;377162;108;1987065;-71
2021/06/28 04:56:23;;;;;;;10.59;6.14;;;;;;;20.33;69.26;98954.00;330196;110;2535991;-70
2021/06/28 04:57:55;;;;;;;8.54;6.01;;;;;;;20.46;68.99;98937.98;391488;103;1986055;-68
2021/06/28 04:59:01;;;;;;;10.93;6.32;;;;;;;20.29;69.10;98933.72;371741;107;1961890;-70
2021/06/28 05:00:26;;;;;;;10.16;6.39;;;;;;;20.29;69.10;98936.46;363218;107;1963966;-72
2021/06/28 05:01:38;;;;;;;9.41;5.58;;;;;;;20.36;69.17;98949.86;392479;104;1964935;-74
2021/06/28 05:02:44;;;;;;;10.17;6.43;;;;;;;20.26;69.22;98928.00;366287;106;2962989;-75
2021/06/28 05:03:56;;;;;;;10.18;6.61;;;;;;;20.37;69.05;98941.33;380123;106;2074081;-74
2021/06/28 05:05:03;;;;;;;9.37;6.03;;;;;;;20.29;69.10;98932.91;361462;112;1963005;-74
2021/06/28 05:06:27;;;;;;;9.98;6.08;;;;;;;20.23;69.21;98950.52;356528;112;1961924;-74
2021/06/28 05:07:32;;;;;;;11.77;6.25;;;;;;;20.26;69.05;98942.53;357644;110;1962009;-72
2021/06/28 05:08:45;;;;;;;11.24;6.10;;;;;;;20.37;69.34;98935.84;390454;104;1985941;-73
2021/06/28 05:09:50;;;;;;;8.84;5.79;;;;;;;20.32;69.08;98951.52;369943;107;1962038;-72
2021/06/28 05:11:02;;;;;;;9.46;5.79;;;;;;;20.49;68.68;98940.95;395824;104;1986863;-72
2021/06/28 05:12:08;;;;;;;10.50;6.14;;;;;;;20.47;68.37;98936.87;373522;107;1961885;-74
2021/06/28 05:13:32;;;;;;;10.42;6.34;;;;;;;20.42;68.78;98941.28;333530;106;2711940;-73
2021/06/28 05:14:45;;;;;;;9.29;5.57;;;;;;;20.62;68.76;98945.80;397527;104;1963885;-72
2021/06/28 05:15:50;;;;;;;9.18;5.66;;;;;;;20.57;68.34;98948.59;379994;105;1967727;-74
2021/06/28 05:17:03;;;;;;;11.44;5.82;;;;;;;20.77;67.89;98946.73;378202;106;2848817;-75
2021/06/28 05:18:08;;;;;;;12.01;6.42;;;;;;;20.70;67.85;98936.13;349276;108;1963059;-74
2021/06/28 05:19:14;;;;;;;9.13;5.63;;;;;;;20.85;67.59;98932.38;354085;109;1960933;-74
2021/06/28 05:20:26;;;;;;;10.18;6.27;;;;;;;21.10;67.34;98941.45;383605;106;1985975;-74
2021/06/28 05:21:31;;;;;;;8.52;6.32;;;;;;;21.05;67.04;98931.34;369831;107;1962103;-74
2021/06/28 05:22:38;;;;;;;10.34;6.13;;;;;;;21.07;66.55;98942.84;368496;107;1962005;-73
2021/06/28 05:23:44;;;;;;;10.20;5.84;;;;;;;21.10;66.22;98938.70;369875;108;1962088;-73
2021/06/28 05:24:56;;;;;;;10.28;6.23;;;;;;;21.27;66.20;98933.52;395786;104;1963040;-73
2021/06/28 05:26:02;;;;;;;10.12;6.24;;;;;;;21.19;65.96;98932.25;373904;106;1969988;-74
2021/06/28 05:27:35;;;;;;;12.36;5.40;;;;;;;21.35;65.57;98932.05;415039;99;1985989;-74
2021/06/28 05:28:41;;;;;;;13.39;6.33;;;;;;;21.22;65.57;98937.17;321473;101;2307905;-75
2021/06/28 05:29:56;;;;;;;11.76;5.94;;;;;;;21.38;65.42;98934.23;389209;104;2070877;-76
2021/06/28 05:31:03;;;;;;;8.06;5.34;;;;;;;21.21;65.45;98929.22;374785;107;1967075;-74
2021/06/28 05:32:15;;;;;;;8.85;5.65;;;;;;;21.29;65.28;98926.63;394466;104;1984796;-75
2021/06/28 05:33:22;;;;;;;9.33;5.44;;;;;;;21.18;65.04;98927.88;340152;106;2618841;-76
2021/06/28 05:34:45;;;;;;;11.81;5.92;;;;;;;21.20;64.96;98928.41;371757;108;1960898;-74